Time;durP1;ratioP1;P1;durP2;ratioP2;P2;SDS_P1;SDS_P2;PMS_P1;PMS_P2;Temp;Humidity;BMP_temperature;BMP_pressure;BME280_temperature;BME280_humidity;BME280_pressure;Samples;Min_cycle;Max_cycle;Signal;HPM_P1;HPM_P2
2022/10/30 00:00:13;;;;;;;;;;;15.80;99.90;;;;;;5040832;28;20045;-71
2022/10/30 00:02:39;;;;;;;13.40;4.70;;;15.80;99.90;;;;;;5048711;28;19920;-73
2022/10/30 00:05:05;;;;;;;;;;;15.80;99.90;;;;;;5044449;28;20483;-72
2022/10/30 00:07:31;;;;;;;15.13;4.70;;;15.70;99.90;;;;;;5068710;28;20699;-73
2022/10/30 00:09:56;;;;;;;17.05;5.50;;;15.70;99.90;;;;;;5045430;28;20060;-73
2022/10/30 00:12:22;;;;;;;;;;;15.60;99.90;;;;;;5045542;28;20037;-71
2022/10/30 00:14:47;;;;;;;19.85;5.40;;;15.60;99.90;;;;;;5069436;28;19921;-72
2022/10/30 00:17:13;;;;;;;15.05;4.93;;;15.50;99.90;;;;;;5046339;28;20049;-74
2022/10/30 00:19:39;;;;;;;;;;;15.50;99.90;;;;;;5038663;28;20056;-73
2022/10/30 00:22:04;;;;;;;12.55;5.18;;;15.40;99.90;;;;;;5029086;28;20012;-71
2022/10/30 00:24:30;;;;;;;15.95;6.25;;;15.30;99.90;;;;;;5031937;28;20058;-73
2022/10/30 00:26:56;;;;;;;12.95;5.50;;;15.30;99.90;;;;;;5027018;28;20115;-71
2022/10/30 00:29:23;;;;;;;;;;;15.20;99.90;;;;;;5072541;28;20052;-73
2022/10/30 00:31:49;;;;;;;13.25;4.85;;;15.20;99.90;;;;;;5037935;28;19924;-72
2022/10/30 00:34:15;;;;;;;11.02;4.60;;;15.20;99.90;;;;;;5041875;28;20068;-74
2022/10/30 00:36:41;;;;;;;;;;;15.20;99.90;;;;;;5073580;28;20494;-71
2022/10/30 00:39:06;;;;;;;17.27;5.05;;;15.20;99.90;;;;;;5031591;28;19929;-72
2022/10/30 00:41:32;;;;;;;16.27;5.38;;;15.20;99.90;;;;;;5027206;28;20522;-71
2022/10/30 00:43:58;;;;;;;10.55;4.60;;;15.10;99.90;;;;;;5037517;28;20120;-71
2022/10/30 00:46:33;;;;;;;21.60;5.57;;;15.10;99.90;;;;;;5036745;28;20128;-72
2022/10/30 00:49:09;;;;;;;12.55;4.80;;;15.00;99.90;;;;;;5032461;28;20065;-72
2022/10/30 00:51:38;;;;;;;22.98;6.00;;;15.00;99.90;;;;;;5039415;28;20044;-71
2022/10/30 00:54:06;;;;;;;21.73;5.78;;;15.00;99.90;;;;;;5072193;28;20474;-71
2022/10/30 00:56:32;;;;;;;15.95;5.40;;;15.00;99.90;;;;;;5034874;28;20483;-73
2022/10/30 00:59:14;;;;;;;11.73;5.13;;;14.90;99.90;;;;;;5032189;28;20085;-74
2022/10/30 01:01:43;;;;;;;10.00;4.25;;;14.90;99.90;;;;;;5031684;28;20091;-72
2022/10/30 01:04:10;;;;;;;15.38;5.40;;;14.90;99.90;;;;;;5032150;28;20118;-71
2022/10/30 01:06:40;;;;;;;10.18;4.80;;;14.90;99.90;;;;;;5039026;28;20049;-71
2022/10/30 01:09:06;;;;;;;16.02;5.53;;;14.90;99.90;;;;;;5046030;28;20045;-71
2022/10/30 01:11:32;;;;;;;13.35;5.18;;;14.80;99.90;;;;;;5030435;28;20365;-72
2022/10/30 01:14:03;;;;;;;15.52;4.68;;;14.80;99.90;;;;;;5032208;28;20064;-71
2022/10/30 01:16:55;;;;;;;18.42;5.15;;;14.80;99.90;;;;;;5031543;28;20518;-72
2022/10/30 01:19:39;;;;;;;11.73;5.18;;;14.80;99.90;;;;;;5063968;28;20054;-74
2022/10/30 01:22:29;;;;;;;13.55;6.18;;;14.80;99.90;;;;;;5031878;28;20049;-73
2022/10/30 01:25:23;;;;;;;9.68;4.78;;;14.80;99.90;;;;;;5042127;28;20118;-72
2022/10/30 01:28:32;;;;;;;19.58;5.28;;;14.70;99.90;;;;;;5049723;28;20037;-71
2022/10/30 01:31:43;;;;;;;15.85;5.95;;;14.70;99.90;;;;;;5031027;28;20099;-72
2022/10/30 01:34:15;;;;;;;17.25;5.78;;;14.70;99.90;;;;;;5030758;28;20073;-73
2022/10/30 01:36:54;;;;;;;13.20;5.45;;;14.60;99.90;;;;;;5038978;28;20049;-71
2022/10/30 01:39:26;;;;;;;19.52;5.40;;;14.60;99.90;;;;;;5043988;28;20100;-72
2022/10/30 01:41:52;;;;;;;19.25;6.35;;;14.60;99.90;;;;;;5030247;28;20495;-71
2022/10/30 01:44:23;;;;;;;13.85;5.18;;;14.50;99.90;;;;;;5030581;28;20103;-71
2022/10/30 01:47:32;;;;;;;14.30;4.90;;;14.50;99.90;;;;;;5031556;28;20049;-72
2022/10/30 01:50:32;;;;;;;16.63;6.45;;;14.50;99.90;;;;;;5030827;28;20570;-71
2022/10/30 01:53:11;;;;;;;13.75;4.93;;;14.50;99.90;;;;;;5030605;28;20053;-71
2022/10/30 01:55:53;;;;;;;20.25;5.07;;;14.50;99.90;;;;;;5029627;28;20501;-72
2022/10/30 01:58:47;;;;;;;13.90;5.18;;;14.40;99.90;;;;;;5031371;28;20108;-72
2022/10/30 02:01:14;;;;;;;17.90;5.05;;;14.50;99.90;;;;;;5022244;28;20061;-72
2022/10/30 02:03:40;;;;;;;20.10;5.85;;;14.40;99.90;;;;;;5046310;28;20566;-71
2022/10/30 02:06:05;;;;;;;17.85;6.35;;;14.40;99.90;;;;;;5043102;28;20132;-71
2022/10/30 02:08:31;;;;;;;18.33;5.97;;;14.50;99.90;;;;;;5049096;28;20053;-71
2022/10/30 02:10:57;;;;;;;14.90;5.55;;;14.50;99.90;;;;;;5042376;28;20095;-71
2022/10/30 02:13:23;;;;;;;15.73;5.22;;;14.40;99.90;;;;;;5029888;28;20041;-71
2022/10/30 02:15:49;;;;;;;18.83;6.03;;;14.30;99.90;;;;;;5030663;28;20396;-72
2022/10/30 02:18:15;;;;;;;15.05;5.22;;;14.30;99.90;;;;;;5029668;28;20046;-71
2022/10/30 02:20:41;;;;;;;13.32;5.32;;;14.30;99.90;;;;;;5030245;28;20042;-73
2022/10/30 02:23:07;;;;;;;13.95;5.03;;;14.30;99.90;;;;;;5029898;28;20097;-71
2022/10/30 02:25:34;;;;;;;12.35;5.10;;;14.30;99.90;;;;;;5029368;28;20076;-72
2022/10/30 02:27:59;;;;;;;14.45;5.30;;;14.30;99.90;;;;;;5039668;28;20659;-71
2022/10/30 02:30:25;;;;;;;15.57;6.35;;;14.40;99.90;;;;;;5049619;28;20045;-72
2022/10/30 02:32:51;;;;;;;17.48;5.68;;;14.40;99.90;;;;;;5049948;28;20115;-71
2022/10/30 02:35:16;;;;;;;14.15;4.85;;;14.30;99.90;;;;;;5037958;28;20053;-71
2022/10/30 02:37:42;;;;;;;12.27;5.50;;;14.40;99.90;;;;;;5029019;28;20132;-72
2022/10/30 02:40:08;;;;;;;17.20;5.95;;;14.40;99.90;;;;;;5061825;28;20072;-72
2022/10/30 02:42:34;;;;;;;11.65;5.03;;;14.50;99.90;;;;;;5029891;28;20096;-72
2022/10/30 02:45:00;;;;;;;13.00;4.68;;;14.50;99.90;;;;;;5033229;28;20073;-72
2022/10/30 02:47:27;;;;;;;15.70;5.35;;;14.50;99.90;;;;;;5032746;28;20146;-74
2022/10/30 02:49:53;;;;;;;18.67;5.20;;;14.60;99.90;;;;;;5032712;28;20815;-72
2022/10/30 02:52:19;;;;;;;17.70;5.15;;;14.60;99.90;;;;;;5029988;28;20052;-72
2022/10/30 02:54:44;;;;;;;19.23;7.07;;;14.70;99.90;;;;;;5070329;28;20048;-73
2022/10/30 02:57:10;;;;;;;19.80;6.25;;;14.70;99.90;;;;;;5032304;28;20045;-72
2022/10/30 02:59:35;;;;;;;12.25;5.45;;;14.80;99.90;;;;;;5029646;28;20053;-74
2022/10/30 03:02:01;;;;;;;8.23;4.50;;;14.80;99.90;;;;;;5047478;28;20155;-72
2022/10/30 03:04:27;;;;;;;12.40;5.88;;;14.80;99.90;;;;;;5045457;28;20053;-71
2022/10/30 03:06:53;;;;;;;;;;;14.80;99.90;;;;;;5028976;28;20057;-71
2022/10/30 03:09:18;;;;;;;17.42;5.05;;;14.70;99.90;;;;;;5036024;28;19921;-71
2022/10/30 03:11:44;;;;;;;16.90;5.28;;;14.60;99.90;;;;;;5048199;28;20410;-71
2022/10/30 03:14:10;;;;;;;17.02;5.68;;;14.40;99.90;;;;;;5050147;28;20495;-71
2022/10/30 03:16:36;;;;;;;;;;;14.40;99.90;;;;;;5033491;28;20053;-74
2022/10/30 03:19:02;;;;;;;16.73;5.22;;;14.30;99.90;;;;;;5047715;28;20370;-71
2022/10/30 03:21:28;;;;;;;18.17;5.85;;;14.20;99.90;;;;;;5030280;28;20052;-72
2022/10/30 03:23:54;;;;;;;;;;;14.10;99.90;;;;;;5060798;28;20125;-71
2022/10/30 03:26:20;;;;;;;17.60;5.10;;;14.10;99.90;;;;;;5028996;28;20066;-71
2022/10/30 03:28:46;;;;;;;20.45;5.72;;;14.00;99.90;;;;;;5029142;28;20128;-71
2022/10/30 03:31:15;;;;;;;14.02;5.03;;;13.90;99.90;;;;;;5028665;28;20602;-71
2022/10/30 03:33:42;;;;;;;19.75;6.00;;;13.80;99.90;;;;;;5034501;28;20060;-71
2022/10/30 03:36:09;;;;;;;17.88;5.82;;;13.70;99.90;;;;;;5049625;28;20128;-71
2022/10/30 03:38:36;;;;;;;18.50;5.65;;;13.70;99.90;;;;;;5079207;28;20049;-73
2022/10/30 03:41:02;;;;;;;18.02;6.07;;;13.70;99.90;;;;;;5042987;28;20071;-71
2022/10/30 03:43:28;;;;;;;13.60;5.28;;;13.70;99.90;;;;;;5045303;28;20120;-71
2022/10/30 03:45:55;;;;;;;20.98;6.35;;;13.70;99.90;;;;;;5035618;28;20427;-73
2022/10/30 03:48:22;;;;;;;14.80;6.05;;;13.70;99.90;;;;;;5044012;28;20502;-71
2022/10/30 03:50:50;;;;;;;17.50;6.30;;;13.60;99.90;;;;;;5027827;28;20457;-71
2022/10/30 03:53:16;;;;;;;14.65;5.60;;;13.60;99.90;;;;;;5028723;28;20053;-71
2022/10/30 03:55:42;;;;;;;15.27;5.75;;;13.60;99.90;;;;;;5045228;28;20109;-72
2022/10/30 03:58:07;;;;;;;13.07;5.25;;;13.50;99.90;;;;;;5040252;28;20139;-71
2022/10/30 04:00:35;;;;;;;22.27;6.63;;;13.50;99.90;;;;;;5029676;28;20487;-71
2022/10/30 04:03:01;;;;;;;15.85;6.20;;;13.50;99.90;;;;;;5040678;28;20057;-73
2022/10/30 04:05:27;;;;;;;;;;;13.50;99.90;;;;;;5035669;28;20494;-71
2022/10/30 04:07:58;;;;;;;13.98;5.47;;;13.50;99.90;;;;;;5026646;28;19928;-71
2022/10/30 04:10:24;;;;;;;22.38;7.00;;;13.50;99.90;;;;;;5031914;28;20529;-71
2022/10/30 04:12:50;;;;;;;;;;;13.50;99.90;;;;;;5048862;28;20482;-73
2022/10/30 04:15:16;;;;;;;17.45;5.88;;;13.50;99.90;;;;;;5049503;28;19927;-71
2022/10/30 04:17:49;;;;;;;20.25;5.90;;;13.50;99.90;;;;;;5043427;28;21127;-75
2022/10/30 04:20:14;;;;;;;16.08;6.15;;;13.50;99.90;;;;;;5033494;28;20057;-71
2022/10/30 04:22:40;;;;;;;13.63;5.65;;;13.50;99.90;;;;;;5031868;28;20049;-74
2022/10/30 04:25:06;;;;;;;14.98;5.95;;;13.50;99.90;;;;;;5059414;28;20049;-71
2022/10/30 04:27:41;;;;;;;19.20;5.72;;;13.50;99.90;;;;;;5052977;28;20052;-72
2022/10/30 04:30:09;;;;;;;18.27;6.03;;;13.50;99.90;;;;;;5052838;28;20049;-73
2022/10/30 04:32:35;;;;;;;22.88;7.22;;;13.50;99.90;;;;;;5035279;28;20055;-72
2022/10/30 04:35:02;;;;;;;17.42;6.38;;;13.50;99.90;;;;;;5035753;28;20042;-72
2022/10/30 04:37:28;;;;;;;18.00;5.88;;;13.50;99.90;;;;;;5039427;28;20056;-73
2022/10/30 04:39:54;;;;;;;;;;;13.50;99.90;;;;;;5044775;28;20064;-71
2022/10/30 04:42:19;;;;;;;13.27;5.93;;;13.40;99.90;;;;;;5052503;28;19929;-71
2022/10/30 04:44:45;;;;;;;21.17;6.40;;;13.40;99.90;;;;;;5045391;28;20049;-74
2022/10/30 04:47:11;;;;;;;12.65;5.65;;;13.40;99.90;;;;;;5032758;28;20376;-71
2022/10/30 04:49:36;;;;;;;15.52;6.22;;;13.40;99.90;;;;;;5064895;28;20080;-71
2022/10/30 04:52:02;;;;;;;17.90;7.22;;;13.30;99.90;;;;;;5031995;28;20100;-71
2022/10/30 04:54:28;;;;;;;12.90;5.85;;;13.40;99.90;;;;;;5031810;28;20053;-71
2022/10/30 04:56:53;;;;;;;16.85;6.88;;;13.40;99.90;;;;;;5029850;28;20052;-73
2022/10/30 04:59:19;;;;;;;16.27;5.68;;;13.40;99.90;;;;;;5032685;28;20059;-72
2022/10/30 05:01:45;;;;;;;18.63;6.82;;;13.40;99.90;;;;;;5064315;28;20124;-74
2022/10/30 05:04:10;;;;;;;19.13;5.28;;;13.40;99.90;;;;;;5032832;28;20096;-73
2022/10/30 05:06:37;;;;;;;15.35;5.28;;;13.40;99.90;;;;;;5042748;28;20053;-73
2022/10/30 05:09:02;;;;;;;14.48;5.40;;;13.30;99.90;;;;;;5044685;28;20045;-72
2022/10/30 05:11:28;;;;;;;12.55;5.28;;;13.30;99.90;;;;;;5031455;28;20045;-71
2022/10/30 05:13:55;;;;;;;16.40;5.55;;;13.20;99.90;;;;;;5031759;28;20053;-71
2022/10/30 05:16:20;;;;;;;15.50;6.45;;;13.20;99.90;;;;;;5032434;28;20041;-73
2022/10/30 05:18:46;;;;;;;13.75;5.38;;;13.20;99.90;;;;;;5031899;28;20098;-74
2022/10/30 05:21:12;;;;;;;19.92;6.00;;;13.10;99.90;;;;;;5070874;28;20106;-71
2022/10/30 05:23:37;;;;;;;11.40;6.03;;;13.10;99.90;;;;;;5050744;28;20060;-72
2022/10/30 05:26:03;;;;;;;12.13;4.75;;;13.10;99.90;;;;;;5050510;28;20053;-71
2022/10/30 05:28:29;;;;;;;14.50;5.22;;;13.00;99.90;;;;;;5079007;28;20430;-72
2022/10/30 05:30:55;;;;;;;13.10;5.05;;;13.00;99.90;;;;;;5046324;28;20095;-72
2022/10/30 05:33:20;;;;;;;12.25;4.70;;;12.90;99.90;;;;;;5052684;28;20714;-73
2022/10/30 05:35:46;;;;;;;13.43;6.28;;;12.90;99.90;;;;;;5033570;28;20053;-73
2022/10/30 05:38:12;;;;;;;16.85;6.72;;;12.80;99.90;;;;;;5037926;28;20045;-71
2022/10/30 05:40:38;;;;;;;18.83;6.30;;;12.80;99.90;;;;;;5050705;28;20041;-73
2022/10/30 05:43:04;;;;;;;15.45;5.72;;;12.80;99.90;;;;;;5051083;28;20048;-71
2022/10/30 05:45:30;;;;;;;;;;;12.70;99.90;;;;;;5052152;28;20102;-71
2022/10/30 05:48:01;;;;;;;17.52;6.75;;;12.60;99.90;;;;;;5031679;28;19925;-71
2022/10/30 05:50:28;;;;;;;15.68;6.82;;;12.50;99.90;;;;;;5040158;28;20486;-71
2022/10/30 05:53:01;;;;;;;14.27;6.28;;;12.60;99.90;;;;;;5049954;28;20048;-74
2022/10/30 05:55:27;;;;;;;20.90;7.45;;;12.60;99.90;;;;;;5049447;28;20056;-71
2022/10/30 05:57:56;;;;;;;;;;;12.60;99.90;;;;;;5036389;28;20398;-74
2022/10/30 06:00:22;;;;;;;13.75;6.50;;;12.60;99.90;;;;;;5031424;28;20374;-71
2022/10/30 06:02:48;;;;;;;20.23;7.38;;;12.60;99.90;;;;;;5030147;28;20068;-72
2022/10/30 06:05:14;;;;;;;15.02;6.53;;;12.60;99.90;;;;;;5047376;28;20045;-71
2022/10/30 06:07:39;;;;;;;18.42;7.25;;;12.60;99.90;;;;;;5044894;28;20049;-71
2022/10/30 06:10:05;;;;;;;24.27;8.88;;;12.60;99.90;;;;;;5037983;28;20064;-71
2022/10/30 06:12:31;;;;;;;19.67;7.13;;;12.60;99.90;;;;;;5033059;28;20124;-72
2022/10/30 06:14:57;;;;;;;17.95;6.93;;;12.60;99.90;;;;;;5050429;28;20088;-72
2022/10/30 06:17:22;;;;;;;19.58;7.28;;;12.60;99.90;;;;;;5050981;28;20053;-71
2022/10/30 06:19:48;;;;;;;16.00;6.32;;;12.60;99.90;;;;;;5050697;28;20053;-71
2022/10/30 06:22:14;;;;;;;20.02;7.28;;;12.60;99.90;;;;;;5049433;28;20128;-73
2022/10/30 06:24:39;;;;;;;17.33;6.85;;;12.60;99.90;;;;;;5050027;28;20494;-71
2022/10/30 06:27:05;;;;;;;15.68;6.72;;;12.60;99.90;;;;;;5049519;28;20128;-70
2022/10/30 06:29:31;;;;;;;19.50;6.70;;;12.60;99.90;;;;;;5049743;28;20487;-71
2022/10/30 06:31:57;;;;;;;17.35;7.30;;;12.50;99.90;;;;;;5049355;28;20067;-74
2022/10/30 06:34:22;;;;;;;18.98;7.53;;;12.50;99.90;;;;;;5080033;28;20136;-71
2022/10/30 06:36:48;;;;;;;19.40;6.68;;;12.50;99.90;;;;;;5050331;28;20041;-71
2022/10/30 06:39:14;;;;;;;22.48;7.50;;;12.60;99.90;;;;;;5047905;28;20052;-72
2022/10/30 06:41:39;;;;;;;19.90;7.95;;;12.60;99.90;;;;;;5049236;28;20474;-73
2022/10/30 06:44:05;;;;;;;18.48;8.07;;;12.60;99.90;;;;;;5049927;28;20049;-72
2022/10/30 06:46:30;;;;;;;24.02;6.90;;;12.70;99.90;;;;;;5042761;28;20441;-72
2022/10/30 06:48:56;;;;;;;17.23;7.05;;;12.70;99.90;;;;;;5049709;28;20049;-74
2022/10/30 06:51:22;;;;;;;14.48;7.40;;;12.70;99.90;;;;;;5050019;28;20083;-71
2022/10/30 06:53:47;;;;;;;21.45;7.60;;;12.80;99.90;;;;;;5049317;28;20498;-71
2022/10/30 06:56:13;;;;;;;13.10;6.57;;;12.80;99.90;;;;;;5048749;28;20123;-71
2022/10/30 06:58:39;;;;;;;18.33;7.53;;;12.80;99.90;;;;;;5047503;28;20057;-71
2022/10/30 07:01:05;;;;;;;15.30;6.70;;;12.80;99.90;;;;;;5042233;28;20099;-71
2022/10/30 07:03:31;;;;;;;15.90;5.90;;;12.80;99.90;;;;;;5073699;28;20091;-71
2022/10/30 07:05:57;;;;;;;17.65;6.68;;;12.70;99.90;;;;;;5049552;28;20108;-74
2022/10/30 07:08:23;;;;;;;19.02;6.38;;;12.70;99.90;;;;;;5048102;28;20572;-71
2022/10/30 07:10:49;;;;;;;;;;;12.60;99.90;;;;;;5049431;28;20361;-72
2022/10/30 07:13:15;;;;;;;13.55;6.03;;;12.60;99.90;;;;;;5048292;28;20388;-71
2022/10/30 07:15:40;;;;;;;15.88;7.05;;;12.60;99.90;;;;;;5044983;28;20128;-71
2022/10/30 07:18:08;;;;;;;24.45;7.03;;;12.60;99.90;;;;;;5029320;28;20175;-71
2022/10/30 07:20:34;;;;;;;16.35;6.75;;;12.60;99.90;;;;;;5039280;28;20103;-71
2022/10/30 07:23:00;;;;;;;19.63;6.72;;;12.70;99.90;;;;;;5048618;28;20061;-75
2022/10/30 07:25:26;;;;;;;17.33;6.97;;;12.70;99.90;;;;;;5032414;28;20606;-71
2022/10/30 07:27:52;;;;;;;;;;;12.80;99.90;;;;;;5038881;28;20041;-73
2022/10/30 07:30:21;;;;;;;17.88;7.40;;;12.80;99.90;;;;;;5049004;28;19960;-72
2022/10/30 07:33:03;;;;;;;18.15;7.22;;;12.80;99.90;;;;;;5049210;28;20083;-72
2022/10/30 07:35:30;;;;;;;20.50;7.93;;;12.90;99.90;;;;;;5030043;28;20103;-73
2022/10/30 07:38:04;;;;;;;24.17;8.43;;;13.00;99.90;;;;;;5031528;28;20049;-71
2022/10/30 07:40:30;;;;;;;16.45;7.10;;;13.10;99.90;;;;;;5028941;28;20049;-77
2022/10/30 07:43:00;;;;;;;28.23;7.35;;;13.20;99.90;;;;;;5045822;28;20064;-76
2022/10/30 07:45:26;;;;;;;16.83;7.55;;;13.30;99.90;;;;;;5045955;28;20053;-74
2022/10/30 07:47:52;;;;;;;23.20;8.20;;;13.30;99.90;;;;;;5048911;28;20084;-74
2022/10/30 07:50:18;;;;;;;17.13;7.05;;;13.40;99.90;;;;;;5049159;28;20081;-74
2022/10/30 07:52:44;;;;;;;19.15;7.70;;;13.40;99.90;;;;;;5050355;28;20040;-73
2022/10/30 07:55:10;;;;;;;16.60;7.90;;;13.40;99.90;;;;;;5052669;28;20079;-73
2022/10/30 07:57:40;;;;;;;15.55;7.72;;;13.50;99.90;;;;;;5054246;28;20087;-74
2022/10/30 08:00:08;;;;;;;17.58;7.10;;;13.60;99.90;;;;;;5052801;28;20403;-75
2022/10/30 08:02:34;;;;;;;23.90;9.00;;;13.70;99.90;;;;;;5047087;28;20040;-74
2022/10/30 08:05:00;;;;;;;19.63;7.50;;;13.80;99.90;;;;;;5045161;28;20107;-74
2022/10/30 08:07:33;;;;;;;;;;;13.80;99.90;;;;;;5050492;28;20549;-74
2022/10/30 08:09:58;;;;;;;21.50;8.18;;;13.90;99.90;;;;;;5052860;28;19924;-74
2022/10/30 08:12:26;;;;;;;20.17;8.13;;;14.00;99.90;;;;;;5052893;28;20048;-74
2022/10/30 08:14:52;;;;;;;17.75;7.68;;;14.20;99.90;;;;;;5069183;28;20105;-71
2022/10/30 08:17:19;;;;;;;21.30;7.70;;;14.30;99.90;;;;;;5051854;28;20052;-73
2022/10/30 08:19:45;;;;;;;18.80;8.15;;;14.40;99.90;;;;;;5052972;28;20041;-72
2022/10/30 08:22:11;;;;;;;19.38;8.10;;;14.50;99.90;;;;;;5050863;28;20040;-72
2022/10/30 08:24:36;;;;;;;;;;;14.60;99.90;;;;;;5052018;28;20048;-72
2022/10/30 08:27:03;;;;;;;16.60;7.50;;;14.70;99.90;;;;;;5052310;28;19978;-75
2022/10/30 08:29:29;;;;;;;18.98;7.70;;;14.70;99.90;;;;;;5052712;28;20053;-72
2022/10/30 08:31:54;;;;;;;21.50;7.97;;;14.80;99.90;;;;;;5053123;28;20720;-73
2022/10/30 08:34:20;;;;;;;21.45;7.80;;;14.90;99.90;;;;;;5043887;28;20046;-73
2022/10/30 08:36:50;;;;;;;22.48;8.82;;;15.00;99.90;;;;;;5047393;28;20052;-76
2022/10/30 08:39:17;;;;;;;20.88;7.88;;;15.00;99.90;;;;;;5038800;28;20461;-73
2022/10/30 08:41:43;;;;;;;19.98;8.27;;;15.10;99.90;;;;;;5047644;28;20664;-74
2022/10/30 08:44:09;;;;;;;26.42;10.00;;;15.10;99.90;;;;;;5048879;28;20164;-79
2022/10/30 08:46:35;;;;;;;;;;;15.20;99.90;;;;;;5048157;28;20040;-75
2022/10/30 08:49:01;;;;;;;18.08;8.48;;;15.20;99.90;;;;;;5041066;28;19932;-76
2022/10/30 08:51:26;;;;;;;18.58;7.50;;;15.30;99.90;;;;;;5037324;28;20047;-78
2022/10/30 08:53:52;;;;;;;19.95;9.13;;;15.30;99.90;;;;;;5040148;28;20248;-72
2022/10/30 08:56:18;;;;;;;;;;;15.30;99.90;;;;;;5046056;28;20127;-73
2022/10/30 08:58:43;;;;;;;19.45;7.80;;;15.40;99.90;;;;;;5048052;28;20412;-74
2022/10/30 09:01:10;;;;;;;;;;;15.40;99.90;;;;;;5044717;28;20042;-77
2022/10/30 09:03:37;;;;;;;28.80;9.38;;;15.40;99.90;;;;;;5039167;28;20011;-74
2022/10/30 09:06:03;;;;;;;20.15;8.90;;;15.50;99.90;;;;;;5043069;28;20041;-76
2022/10/30 09:08:29;;;;;;;;;;;15.50;99.90;;;;;;5039413;28;20558;-78
2022/10/30 09:10:58;;;;;;;21.52;9.27;;;15.50;99.90;;;;;;5045786;28;20036;-73
2022/10/30 09:13:25;;;;;;;18.92;8.63;;;15.60;99.90;;;;;;5051373;28;20623;-73
2022/10/30 09:15:50;;;;;;;25.48;8.68;;;15.60;99.90;;;;;;5053465;28;20051;-74
2022/10/30 09:18:16;;;;;;;38.10;9.23;;;15.70;99.90;;;;;;5035562;28;20045;-79
2022/10/30 09:20:43;;;;;;;23.40;8.35;;;15.70;99.90;;;;;;5035925;28;20511;-74
2022/10/30 09:23:09;;;;;;;21.40;7.63;;;15.80;99.90;;;;;;5031771;28;20115;-75
2022/10/30 09:25:34;;;;;;;24.45;8.35;;;15.80;99.90;;;;;;5038257;28;20049;-79
2022/10/30 09:28:00;;;;;;;24.80;9.07;;;15.90;99.90;;;;;;5045457;28;20050;-76
2022/10/30 09:30:26;;;;;;;;;;;15.90;99.90;;;;;;5038227;28;20073;-79
2022/10/30 09:33:00;;;;;;;18.80;8.82;;;16.00;99.90;;;;;;5046509;28;19921;-80
2022/10/30 09:35:27;;;;;;;17.92;8.63;;;16.10;99.90;;;;;;5023010;28;20065;-74
2022/10/30 09:37:53;;;;;;;22.70;9.23;;;16.20;99.90;;;;;;5031238;28;20128;-74
2022/10/30 09:40:28;;;;;;;18.80;8.50;;;16.20;99.90;;;;;;5032934;28;20563;-79
2022/10/30 09:43:02;;;;;;;18.80;7.77;;;16.30;99.90;;;;;;5044215;28;20076;-76
2022/10/30 09:45:46;;;;;;;20.75;8.50;;;16.30;99.90;;;;;;5043054;28;20110;-76
2022/10/30 09:48:33;;;;;;;18.20;8.30;;;16.40;99.90;;;;;;5042000;28;20060;-76
2022/10/30 09:51:01;;;;;;;;;;;16.50;99.90;;;;;;5046445;28;20888;-84
2022/10/30 09:53:32;;;;;;;18.52;7.95;;;16.60;99.90;;;;;;5047679;28;19931;-84
2022/10/30 09:56:14;;;;;;;19.13;9.02;;;16.70;99.90;;;;;;5038607;28;20041;-74
2022/10/30 09:59:10;;;;;;;27.17;9.70;;;16.80;99.90;;;;;;5046253;28;20080;-74
2022/10/30 10:01:59;;;;;;;20.08;8.25;;;17.00;99.90;;;;;;5048681;28;20430;-77
2022/10/30 10:04:48;;;;;;;18.08;8.30;;;17.10;99.90;;;;;;5042140;28;20059;-76
2022/10/30 10:07:21;;;;;;;16.92;7.72;;;17.20;99.90;;;;;;5040601;28;20382;-78
2022/10/30 10:09:52;;;;;;;23.75;8.25;;;17.30;99.90;;;;;;5038123;28;20037;-77
2022/10/30 10:12:32;;;;;;;17.30;8.35;;;17.40;99.90;;;;;;5047686;28;20060;-78
2022/10/30 10:15:03;;;;;;;14.18;7.82;;;17.50;99.90;;;;;;5048855;28;20140;-77
2022/10/30 10:17:38;;;;;;;20.00;7.93;;;17.50;99.90;;;;;;5049986;28;20063;-78
2022/10/30 10:20:12;;;;;;;17.42;8.30;;;17.50;99.90;;;;;;5049032;28;20475;-78
2022/10/30 10:22:44;;;;;;;16.77;7.75;;;17.60;99.90;;;;;;5059576;28;20491;-79
2022/10/30 10:25:14;;;;;;;17.67;7.47;;;17.60;99.90;;;;;;5049031;28;20138;-80
2022/10/30 10:28:04;;;;;;;16.35;7.47;;;17.70;99.90;;;;;;5049061;28;20080;-79
2022/10/30 10:31:00;;;;;;;20.42;8.40;;;17.90;99.90;;;;;;5042622;28;20128;-80
2022/10/30 10:33:26;;;;;;;21.13;7.78;;;18.10;99.90;;;;;;5043743;28;20545;-80
2022/10/30 10:35:58;;;;;;;;;;;18.30;99.90;;;;;;5044375;28;20092;-79
2022/10/30 10:38:37;;;;;;;20.00;7.82;;;18.50;99.90;;;;;;5040332;28;20404;-80
2022/10/30 10:41:35;;;;;;;29.80;8.82;;;18.70;99.90;;;;;;5045342;28;20045;-80
2022/10/30 10:44:23;;;;;;;18.85;8.20;;;18.90;99.90;;;;;;5045182;28;20052;-80
2022/10/30 10:47:00;;;;;;;14.80;7.78;;;19.30;99.90;;;;;;5071178;28;20037;-79
2022/10/30 10:49:44;;;;;;;16.42;7.25;;;19.50;99.90;;;;;;5037712;28;20049;-82
2022/10/30 10:52:23;;;;;;;17.25;7.68;;;19.80;99.90;;;;;;5039825;28;20045;-80
2022/10/30 10:55:03;;;;;;;15.13;7.15;;;20.00;99.90;;;;;;5046006;28;20055;-81
2022/10/30 10:57:37;;;;;;;20.85;7.85;;;20.20;99.90;;;;;;5042414;28;20099;-79
2022/10/30 11:00:06;;;;;;;16.40;8.40;;;20.40;99.90;;;;;;5047760;28;20059;-79
2022/10/30 11:02:41;;;;;;;18.75;7.63;;;20.60;99.90;;;;;;5047729;28;20098;-82
2022/10/30 11:05:35;;;;;;;20.08;7.97;;;20.90;99.90;;;;;;5045316;28;20049;-70
2022/10/30 11:08:14;;;;;;;19.88;7.30;;;21.20;99.90;;;;;;5035265;28;20041;-77
2022/10/30 11:10:39;;;;;;;17.95;6.85;;;21.50;99.90;;;;;;5035902;28;20045;-75
2022/10/30 11:13:05;;;;;;;17.75;7.38;;;21.90;99.90;;;;;;5037743;28;20041;-76
2022/10/30 11:15:58;;;;;;;17.40;7.40;;;22.20;99.90;;;;;;5049538;28;20048;-79
2022/10/30 11:18:24;;;;;;;19.55;6.85;;;22.70;99.90;;;;;;5038206;28;20084;-76
2022/10/30 11:21:00;;;;;;;21.67;7.18;;;23.20;99.90;;;;;;5048462;28;20037;-82
2022/10/30 11:23:46;;;;;;;15.23;6.68;;;23.60;99.90;;;;;;5038271;28;20065;-82
2022/10/30 11:26:19;;;;;;;18.08;6.15;;;23.80;99.90;;;;;;5047400;28;20053;-83
2022/10/30 11:29:12;;;;;;;14.38;5.70;;;24.00;99.90;;;;;;5045899;28;20052;-84
2022/10/30 11:31:43;;;;;;;17.40;6.15;;;24.30;99.90;;;;;;5047314;28;20064;-83
2022/10/30 11:34:17;;;;;;;15.73;5.88;;;24.50;99.90;;;;;;5047527;28;20124;-84
2022/10/30 11:36:44;;;;;;;15.00;6.05;;;24.60;99.90;;;;;;5049594;28;20098;-84
2022/10/30 11:39:32;;;;;;;15.90;5.80;;;24.80;99.90;;;;;;5047816;28;20063;-89
2022/10/30 11:42:16;;;;;;;18.08;5.80;;;25.10;99.90;;;;;;5046886;28;20099;-85
2022/10/30 11:44:47;;;;;;;17.38;6.25;;;25.30;99.90;;;;;;5067402;28;20466;-86
2022/10/30 11:47:14;;;;;;;15.27;6.47;;;25.70;99.90;;;;;;5049572;28;20044;-86
2022/10/30 11:49:46;;;;;;;16.48;5.82;;;26.00;99.90;;;;;;5081059;28;20045;-86
2022/10/30 11:52:15;;;;;;;12.93;5.90;;;26.20;99.90;;;;;;5078043;28;20115;-82
2022/10/30 11:54:47;;;;;;;21.63;6.57;;;26.30;99.90;;;;;;5045266;28;20445;-82
2022/10/30 11:57:22;;;;;;;12.30;5.75;;;26.50;99.90;;;;;;5034096;28;20057;-85
2022/10/30 11:59:52;;;;;;;20.83;7.40;;;26.50;99.90;;;;;;5031821;28;20122;-85
2022/10/30 12:02:28;;;;;;;14.93;5.88;;;26.50;99.90;;;;;;5048472;28;20461;-84
2022/10/30 12:05:00;;;;;;;16.98;6.03;;;26.30;99.90;;;;;;5040062;28;20052;-85
2022/10/30 12:07:30;;;;;;;12.85;5.93;;;26.40;99.90;;;;;;5047558;28;20164;-78
2022/10/30 12:09:58;;;;;;;16.92;5.63;;;26.40;99.90;;;;;;5028247;28;20064;-75
2022/10/30 12:12:31;;;;;;;15.73;6.10;;;26.50;99.90;;;;;;5042923;28;20495;-74
2022/10/30 12:15:12;;;;;;;13.85;5.32;;;26.60;99.90;;;;;;5033953;28;20045;-79
2022/10/30 12:17:39;;;;;;;19.00;5.85;;;26.60;98.90;;;;;;5042242;28;20048;-79
2022/10/30 12:20:06;;;;;;;13.32;5.32;;;26.40;99.90;;;;;;5029034;28;20057;-74
2022/10/30 12:22:33;;;;;;;16.00;5.47;;;26.40;99.90;;;;;;5028232;28;20739;-74
2022/10/30 12:25:15;;;;;;;11.13;5.55;;;26.50;99.90;;;;;;5011133;28;20055;-74
2022/10/30 12:27:41;;;;;;;23.13;5.78;;;26.60;99.50;;;;;;5035904;28;20103;-79
2022/10/30 12:30:19;;;;;;;12.75;5.85;;;26.60;98.80;;;;;;5040304;28;20190;-76
2022/10/30 12:32:53;;;;;;;12.77;5.13;;;26.50;96.60;;;;;;5029377;28;20072;-73
2022/10/30 12:35:24;;;;;;;18.38;6.07;;;26.20;96.00;;;;;;5028779;28;20140;-74
2022/10/30 12:37:53;;;;;;;13.95;5.28;;;25.80;97.10;;;;;;5028245;28;20060;-74
2022/10/30 12:40:37;;;;;;;17.67;5.60;;;25.60;97.90;;;;;;5032667;28;20467;-75
2022/10/30 12:43:10;;;;;;;15.23;5.68;;;25.30;96.20;;;;;;5031885;28;20183;-74
2022/10/30 12:45:42;;;;;;;13.98;5.30;;;24.70;98.40;;;;;;5033702;28;20053;-73
2022/10/30 12:48:24;;;;;;;14.95;5.82;;;24.10;99.90;;;;;;5032269;28;20049;-73
2022/10/30 12:51:02;;;;;;;12.75;5.53;;;23.80;99.90;;;;;;5040186;28;20119;-74
2022/10/30 12:53:47;;;;;;;16.02;5.82;;;23.50;99.90;;;;;;5051319;28;20275;-75
2022/10/30 12:56:23;;;;;;;22.58;6.53;;;23.40;99.90;;;;;;5032992;28;20049;-74